sensor_id;sensor_type;location;lat;lon;timestamp;pressure;altitude;pressure_sealevel;temperature;humidity
42415;BME280;28058;46.344;17.786;2023-09-19T00:00:56;118336.50;;;-144.97;81.36
42415;BME280;28058;46.344;17.786;2023-09-19T00:03:23;118336.50;;;-144.97;81.21
42415;BME280;28058;46.344;17.786;2023-09-19T00:05:51;118336.50;;;-144.97;81.26
42415;BME280;28058;46.344;17.786;2023-09-19T00:08:18;118336.50;;;-144.97;81.69
42415;BME280;28058;46.344;17.786;2023-09-19T00:10:49;118336.50;;;-144.97;81.53
42415;BME280;28058;46.344;17.786;2023-09-19T00:13:16;118336.50;;;-144.97;81.16
42415;BME280;28058;46.344;17.786;2023-09-19T00:15:44;118336.50;;;-144.97;81.58
42415;BME280;28058;46.344;17.786;2023-09-19T00:18:18;118336.50;;;-144.97;81.50
42415;BME280;28058;46.344;17.786;2023-09-19T00:20:48;118336.50;;;-144.97;81.45
42415;BME280;28058;46.344;17.786;2023-09-19T00:23:16;118336.50;;;-144.97;81.76
42415;BME280;28058;46.344;17.786;2023-09-19T00:25:43;118336.50;;;-144.97;81.64
42415;BME280;28058;46.344;17.786;2023-09-19T00:28:10;118336.50;;;-144.97;81.42
42415;BME280;28058;46.344;17.786;2023-09-19T00:30:38;118336.50;;;-144.97;81.18
42415;BME280;28058;46.344;17.786;2023-09-19T00:33:07;118336.50;;;-144.97;80.76
42415;BME280;28058;46.344;17.786;2023-09-19T00:35:34;118336.50;;;-144.97;80.29
42415;BME280;28058;46.344;17.786;2023-09-19T00:38:01;118336.50;;;-144.97;80.22
42415;BME280;28058;46.344;17.786;2023-09-19T00:40:28;118336.50;;;-144.97;80.57
42415;BME280;28058;46.344;17.786;2023-09-19T00:42:59;118336.50;;;-144.97;80.18
42415;BME280;28058;46.344;17.786;2023-09-19T00:45:27;118336.50;;;-144.97;79.97
42415;BME280;28058;46.344;17.786;2023-09-19T00:47:55;118336.50;;;-144.97;79.66
42415;BME280;28058;46.344;17.786;2023-09-19T00:50:24;118336.50;;;-144.97;79.68
42415;BME280;28058;46.344;17.786;2023-09-19T00:52:53;118336.50;;;-144.97;79.59
42415;BME280;28058;46.344;17.786;2023-09-19T00:55:22;118336.50;;;-144.97;79.92
42415;BME280;28058;46.344;17.786;2023-09-19T00:57:50;118336.50;;;-144.97;79.52
42415;BME280;28058;46.344;17.786;2023-09-19T01:00:18;118336.50;;;-144.97;79.10
42415;BME280;28058;46.344;17.786;2023-09-19T01:02:47;118336.50;;;-144.97;78.93
42415;BME280;28058;46.344;17.786;2023-09-19T01:05:15;118336.50;;;-144.97;79.05
42415;BME280;28058;46.344;17.786;2023-09-19T01:07:42;118336.50;;;-144.97;79.35
42415;BME280;28058;46.344;17.786;2023-09-19T01:10:18;118336.50;;;-144.97;79.98
42415;BME280;28058;46.344;17.786;2023-09-19T01:18:59;118336.50;;;-144.97;80.57
42415;BME280;28058;46.344;17.786;2023-09-19T01:21:42;118336.50;;;-144.97;80.57
42415;BME280;28058;46.344;17.786;2023-09-19T01:29:48;118336.50;;;-144.97;81.73
42415;BME280;28058;46.344;17.786;2023-09-19T01:32:18;118336.50;;;-144.97;82.01
42415;BME280;28058;46.344;17.786;2023-09-19T01:34:52;118336.50;;;-144.97;82.23
42415;BME280;28058;46.344;17.786;2023-09-19T01:37:21;118336.50;;;-144.97;82.28
42415;BME280;28058;46.344;17.786;2023-09-19T01:40:01;118336.50;;;-144.97;82.46
42415;BME280;28058;46.344;17.786;2023-09-19T01:51:06;118336.50;;;-144.97;82.77
42415;BME280;28058;46.344;17.786;2023-09-19T01:53:38;118336.50;;;-144.97;83.15
42415;BME280;28058;46.344;17.786;2023-09-19T01:56:08;118336.50;;;-144.97;83.10
42415;BME280;28058;46.344;17.786;2023-09-19T01:58:44;118336.50;;;-144.97;82.64
42415;BME280;28058;46.344;17.786;2023-09-19T02:01:15;118336.50;;;-144.97;82.40
42415;BME280;28058;46.344;17.786;2023-09-19T02:03:44;118336.50;;;-144.97;82.50
42415;BME280;28058;46.344;17.786;2023-09-19T02:06:15;118336.50;;;-144.97;82.53
42415;BME280;28058;46.344;17.786;2023-09-19T02:08:44;118336.50;;;-144.97;82.35
42415;BME280;28058;46.344;17.786;2023-09-19T02:11:14;118336.50;;;-144.97;82.16
42415;BME280;28058;46.344;17.786;2023-09-19T02:13:42;118336.50;;;-144.97;82.21
42415;BME280;28058;46.344;17.786;2023-09-19T02:16:10;118336.50;;;-144.97;82.13
42415;BME280;28058;46.344;17.786;2023-09-19T02:18:38;118336.50;;;-144.97;81.96
42415;BME280;28058;46.344;17.786;2023-09-19T02:21:06;118336.50;;;-144.97;82.52
42415;BME280;28058;46.344;17.786;2023-09-19T02:23:39;118336.50;;;-144.97;82.67
42415;BME280;28058;46.344;17.786;2023-09-19T02:26:06;118336.50;;;-144.97;82.39
42415;BME280;28058;46.344;17.786;2023-09-19T02:28:34;118336.50;;;-144.97;82.38
42415;BME280;28058;46.344;17.786;2023-09-19T02:31:02;118336.50;;;-144.97;82.50
42415;BME280;28058;46.344;17.786;2023-09-19T02:33:32;118336.50;;;-144.97;82.97
42415;BME280;28058;46.344;17.786;2023-09-19T02:35:59;118336.50;;;-144.97;82.97
42415;BME280;28058;46.344;17.786;2023-09-19T02:38:28;118336.50;;;-144.97;82.65
42415;BME280;28058;46.344;17.786;2023-09-19T02:40:55;118336.50;;;-144.97;82.72
42415;BME280;28058;46.344;17.786;2023-09-19T02:43:23;118336.50;;;-144.97;83.00
42415;BME280;28058;46.344;17.786;2023-09-19T02:45:50;118336.50;;;-144.97;83.14
42415;BME280;28058;46.344;17.786;2023-09-19T02:48:20;118336.50;;;-144.97;83.64
42415;BME280;28058;46.344;17.786;2023-09-19T02:50:50;118336.50;;;-144.97;83.71
42415;BME280;28058;46.344;17.786;2023-09-19T02:53:17;118336.50;;;-144.97;83.77
42415;BME280;28058;46.344;17.786;2023-09-19T02:55:45;118336.50;;;-144.97;83.63
42415;BME280;28058;46.344;17.786;2023-09-19T02:58:13;118336.50;;;-144.97;83.66
42415;BME280;28058;46.344;17.786;2023-09-19T03:00:41;118336.50;;;-144.97;83.37
42415;BME280;28058;46.344;17.786;2023-09-19T03:03:14;118336.50;;;-144.97;83.31
42415;BME280;28058;46.344;17.786;2023-09-19T03:05:43;118336.50;;;-144.97;83.36
42415;BME280;28058;46.344;17.786;2023-09-19T03:08:15;118336.50;;;-144.97;83.13
42415;BME280;28058;46.344;17.786;2023-09-19T03:10:45;118336.50;;;-144.97;82.95
42415;BME280;28058;46.344;17.786;2023-09-19T03:13:14;118336.50;;;-144.97;82.98
42415;BME280;28058;46.344;17.786;2023-09-19T03:15:42;118336.50;;;-144.97;82.44
42415;BME280;28058;46.344;17.786;2023-09-19T03:18:12;118336.50;;;-144.97;82.74
42415;BME280;28058;46.344;17.786;2023-09-19T03:20:40;118336.50;;;-144.97;82.73
42415;BME280;28058;46.344;17.786;2023-09-19T03:23:06;118336.50;;;-144.97;82.49
42415;BME280;28058;46.344;17.786;2023-09-19T03:25:34;118336.50;;;-144.97;82.35
42415;BME280;28058;46.344;17.786;2023-09-19T03:28:03;118336.50;;;-144.97;82.21
42415;BME280;28058;46.344;17.786;2023-09-19T03:30:32;118336.50;;;-144.97;82.05
42415;BME280;28058;46.344;17.786;2023-09-19T03:33:00;118336.50;;;-144.97;82.26
42415;BME280;28058;46.344;17.786;2023-09-19T03:35:27;118336.50;;;-144.97;82.37
42415;BME280;28058;46.344;17.786;2023-09-19T03:37:54;118336.50;;;-144.97;82.75
42415;BME280;28058;46.344;17.786;2023-09-19T03:40:21;118336.50;;;-144.97;82.41
42415;BME280;28058;46.344;17.786;2023-09-19T03:42:49;118336.50;;;-144.97;82.59
42415;BME280;28058;46.344;17.786;2023-09-19T03:45:16;118336.50;;;-144.97;82.41
42415;BME280;28058;46.344;17.786;2023-09-19T03:47:45;118336.50;;;-144.97;82.70
42415;BME280;28058;46.344;17.786;2023-09-19T03:50:14;118336.50;;;-144.97;82.36
42415;BME280;28058;46.344;17.786;2023-09-19T03:52:44;118336.50;;;-144.97;82.67
42415;BME280;28058;46.344;17.786;2023-09-19T03:55:11;118336.50;;;-144.97;82.75
42415;BME280;28058;46.344;17.786;2023-09-19T03:57:38;118336.50;;;-144.97;82.56
42415;BME280;28058;46.344;17.786;2023-09-19T04:00:05;118336.50;;;-144.97;82.88
42415;BME280;28058;46.344;17.786;2023-09-19T04:02:38;118336.50;;;-144.97;82.65
42415;BME280;28058;46.344;17.786;2023-09-19T04:05:06;118336.50;;;-144.97;82.82
42415;BME280;28058;46.344;17.786;2023-09-19T04:07:33;118336.50;;;-144.97;83.17
42415;BME280;28058;46.344;17.786;2023-09-19T04:10:01;118336.50;;;-144.97;83.26
42415;BME280;28058;46.344;17.786;2023-09-19T04:12:28;118336.50;;;-144.97;83.88
42415;BME280;28058;46.344;17.786;2023-09-19T04:14:55;118336.50;;;-144.97;83.85
42415;BME280;28058;46.344;17.786;2023-09-19T04:17:22;118336.50;;;-144.97;84.09
42415;BME280;28058;46.344;17.786;2023-09-19T04:19:50;118336.50;;;-144.97;84.17
42415;BME280;28058;46.344;17.786;2023-09-19T04:22:17;118336.50;;;-144.97;84.61
42415;BME280;28058;46.344;17.786;2023-09-19T04:24:43;118336.50;;;-144.97;84.51
42415;BME280;28058;46.344;17.786;2023-09-19T04:27:10;118336.50;;;-144.97;84.59
42415;BME280;28058;46.344;17.786;2023-09-19T04:29:41;118336.50;;;-144.97;85.23
42415;BME280;28058;46.344;17.786;2023-09-19T04:32:08;118336.50;;;-144.97;85.76
42415;BME280;28058;46.344;17.786;2023-09-19T04:34:36;118336.50;;;-144.97;85.47
42415;BME280;28058;46.344;17.786;2023-09-19T04:37:05;118336.50;;;-144.97;85.10
42415;BME280;28058;46.344;17.786;2023-09-19T04:39:32;118336.50;;;-144.97;85.07
42415;BME280;28058;46.344;17.786;2023-09-19T04:41:58;118336.50;;;-144.97;85.55
42415;BME280;28058;46.344;17.786;2023-09-19T04:44:26;118336.50;;;-144.97;85.69
42415;BME280;28058;46.344;17.786;2023-09-19T04:46:52;118336.50;;;-144.97;85.30
42415;BME280;28058;46.344;17.786;2023-09-19T04:49:19;118336.50;;;-144.97;85.39
42415;BME280;28058;46.344;17.786;2023-09-19T04:51:46;118336.50;;;-144.97;86.02
42415;BME280;28058;46.344;17.786;2023-09-19T04:54:13;118336.50;;;-144.97;87.96
42415;BME280;28058;46.344;17.786;2023-09-19T04:56:41;118336.50;;;-144.97;90.77
42415;BME280;28058;46.344;17.786;2023-09-19T04:59:10;118336.50;;;-144.97;92.40
42415;BME280;28058;46.344;17.786;2023-09-19T05:01:37;118336.50;;;-144.97;92.79
42415;BME280;28058;46.344;17.786;2023-09-19T05:04:04;118336.50;;;-144.97;95.08
42415;BME280;28058;46.344;17.786;2023-09-19T05:06:31;118336.50;;;-144.97;95.33
42415;BME280;28058;46.344;17.786;2023-09-19T05:09:01;118336.50;;;-144.97;95.53
42415;BME280;28058;46.344;17.786;2023-09-19T05:11:31;118336.50;;;-144.97;95.37
42415;BME280;28058;46.344;17.786;2023-09-19T05:13:58;118336.50;;;-144.97;96.27
42415;BME280;28058;46.344;17.786;2023-09-19T05:16:28;118336.50;;;-144.97;97.54
42415;BME280;28058;46.344;17.786;2023-09-19T05:18:56;118336.50;;;-144.97;97.93
42415;BME280;28058;46.344;17.786;2023-09-19T05:21:23;118336.50;;;-144.97;100.00
42415;BME280;28058;46.344;17.786;2023-09-19T05:23:51;118336.50;;;-144.97;100.00
42415;BME280;28058;46.344;17.786;2023-09-19T05:26:19;118336.50;;;-144.97;100.00
42415;BME280;28058;46.344;17.786;2023-09-19T05:28:46;118336.50;;;-144.97;100.00
42415;BME280;28058;46.344;17.786;2023-09-19T05:31:14;118336.50;;;-144.97;100.00
42415;BME280;28058;46.344;17.786;2023-09-19T05:33:43;118336.50;;;-144.97;100.00
42415;BME280;28058;46.344;17.786;2023-09-19T05:36:09;118336.50;;;-144.97;100.00
42415;BME280;28058;46.344;17.786;2023-09-19T05:38:38;118336.50;;;-144.97;100.00
42415;BME280;28058;46.344;17.786;2023-09-19T05:41:07;118336.50;;;-144.97;100.00
42415;BME280;28058;46.344;17.786;2023-09-19T05:43:35;118336.50;;;-144.97;100.00
42415;BME280;28058;46.344;17.786;2023-09-19T05:46:04;118336.50;;;-144.97;100.00
42415;BME280;28058;46.344;17.786;2023-09-19T05:48:31;118336.50;;;-144.97;100.00
42415;BME280;28058;46.344;17.786;2023-09-19T05:50:57;118336.50;;;-144.97;100.00
42415;BME280;28058;46.344;17.786;2023-09-19T05:53:24;118336.50;;;-144.97;100.00
42415;BME280;28058;46.344;17.786;2023-09-19T05:55:51;118336.50;;;-144.97;100.00
42415;BME280;28058;46.344;17.786;2023-09-19T05:58:19;118336.50;;;-144.97;100.00
42415;BME280;28058;46.344;17.786;2023-09-19T06:00:46;118336.50;;;-144.97;100.00
42415;BME280;28058;46.344;17.786;2023-09-19T06:03:15;118336.50;;;-144.97;100.00
42415;BME280;28058;46.344;17.786;2023-09-19T06:05:44;118336.50;;;-144.97;100.00
42415;BME280;28058;46.344;17.786;2023-09-19T06:08:13;118336.50;;;-144.97;100.00
42415;BME280;28058;46.344;17.786;2023-09-19T06:10:39;118336.50;;;-144.97;100.00
42415;BME280;28058;46.344;17.786;2023-09-19T06:13:07;118336.50;;;-144.97;100.00
42415;BME280;28058;46.344;17.786;2023-09-19T06:15:36;118336.50;;;-144.97;100.00
42415;BME280;28058;46.344;17.786;2023-09-19T06:18:03;118336.50;;;-144.97;100.00
42415;BME280;28058;46.344;17.786;2023-09-19T06:20:32;118336.50;;;-144.97;100.00
42415;BME280;28058;46.344;17.786;2023-09-19T06:23:00;118336.50;;;-144.97;100.00
42415;BME280;28058;46.344;17.786;2023-09-19T06:25:29;118336.50;;;-144.97;100.00
42415;BME280;28058;46.344;17.786;2023-09-19T06:27:56;118336.50;;;-144.97;100.00
42415;BME280;28058;46.344;17.786;2023-09-19T06:30:24;118336.50;;;-144.97;100.00
42415;BME280;28058;46.344;17.786;2023-09-19T06:32:55;118336.50;;;-144.97;100.00
42415;BME280;28058;46.344;17.786;2023-09-19T06:35:22;118336.50;;;-144.97;100.00
42415;BME280;28058;46.344;17.786;2023-09-19T06:37:49;118336.50;;;-144.97;100.00
42415;BME280;28058;46.344;17.786;2023-09-19T06:40:17;118336.50;;;-144.97;100.00
42415;BME280;28058;46.344;17.786;2023-09-19T06:42:49;118336.50;;;-144.97;100.00
42415;BME280;28058;46.344;17.786;2023-09-19T06:45:17;118336.50;;;-144.97;100.00
42415;BME280;28058;46.344;17.786;2023-09-19T06:47:49;118336.50;;;-144.97;100.00
42415;BME280;28058;46.344;17.786;2023-09-19T06:50:17;118336.50;;;-144.97;100.00
42415;BME280;28058;46.344;17.786;2023-09-19T06:52:45;118336.50;;;-144.97;100.00
42415;BME280;28058;46.344;17.786;2023-09-19T06:55:14;118336.50;;;-144.97;100.00
42415;BME280;28058;46.344;17.786;2023-09-19T06:57:42;118336.50;;;-144.97;100.00
42415;BME280;28058;46.344;17.786;2023-09-19T07:00:13;118336.50;;;-144.97;100.00
42415;BME280;28058;46.344;17.786;2023-09-19T07:02:45;118336.50;;;-144.97;100.00
42415;BME280;28058;46.344;17.786;2023-09-19T07:05:21;118336.50;;;-144.97;100.00
42415;BME280;28058;46.344;17.786;2023-09-19T07:07:48;118336.50;;;-144.97;100.00
42415;BME280;28058;46.344;17.786;2023-09-19T07:10:15;118336.50;;;-144.97;100.00
42415;BME280;28058;46.344;17.786;2023-09-19T07:12:42;118336.50;;;-144.97;100.00
42415;BME280;28058;46.344;17.786;2023-09-19T07:15:09;118336.50;;;-144.97;100.00
42415;BME280;28058;46.344;17.786;2023-09-19T07:17:36;118336.50;;;-144.97;100.00
42415;BME280;28058;46.344;17.786;2023-09-19T07:20:03;118336.50;;;-144.97;100.00
42415;BME280;28058;46.344;17.786;2023-09-19T07:22:34;118336.50;;;-144.97;100.00
42415;BME280;28058;46.344;17.786;2023-09-19T07:25:02;118336.50;;;-144.97;100.00
42415;BME280;28058;46.344;17.786;2023-09-19T07:27:29;118336.50;;;-144.97;100.00
42415;BME280;28058;46.344;17.786;2023-09-19T07:29:56;118336.50;;;-144.97;100.00
42415;BME280;28058;46.344;17.786;2023-09-19T07:32:23;118336.50;;;-144.97;100.00
42415;BME280;28058;46.344;17.786;2023-09-19T07:34:50;118336.50;;;-144.97;100.00
42415;BME280;28058;46.344;17.786;2023-09-19T07:37:17;118336.50;;;-144.97;100.00
42415;BME280;28058;46.344;17.786;2023-09-19T07:39:44;118336.50;;;-144.97;100.00
42415;BME280;28058;46.344;17.786;2023-09-19T07:42:12;118336.50;;;-144.97;100.00
42415;BME280;28058;46.344;17.786;2023-09-19T07:44:44;118336.50;;;-144.97;100.00
42415;BME280;28058;46.344;17.786;2023-09-19T07:47:17;118336.50;;;-144.97;100.00
42415;BME280;28058;46.344;17.786;2023-09-19T07:49:47;118336.50;;;-144.97;100.00
42415;BME280;28058;46.344;17.786;2023-09-19T07:52:14;118336.50;;;-144.97;100.00
42415;BME280;28058;46.344;17.786;2023-09-19T07:54:42;118336.50;;;-144.97;100.00
42415;BME280;28058;46.344;17.786;2023-09-19T07:57:11;118336.50;;;-144.97;100.00
42415;BME280;28058;46.344;17.786;2023-09-19T07:59:38;118336.50;;;-144.97;100.00
42415;BME280;28058;46.344;17.786;2023-09-19T08:02:05;118336.50;;;-144.97;100.00
42415;BME280;28058;46.344;17.786;2023-09-19T08:04:35;118336.50;;;-144.97;100.00
42415;BME280;28058;46.344;17.786;2023-09-19T08:07:02;118336.50;;;-144.97;100.00
42415;BME280;28058;46.344;17.786;2023-09-19T08:09:31;118336.50;;;-144.97;100.00
42415;BME280;28058;46.344;17.786;2023-09-19T08:11:59;118336.50;;;-144.97;100.00
42415;BME280;28058;46.344;17.786;2023-09-19T08:14:31;118336.50;;;-144.97;100.00
42415;BME280;28058;46.344;17.786;2023-09-19T08:16:58;118336.50;;;-144.97;100.00
42415;BME280;28058;46.344;17.786;2023-09-19T08:19:26;118336.50;;;-144.97;100.00
42415;BME280;28058;46.344;17.786;2023-09-19T08:21:58;118336.50;;;-144.97;100.00
42415;BME280;28058;46.344;17.786;2023-09-19T08:24:25;118336.50;;;-144.97;100.00
42415;BME280;28058;46.344;17.786;2023-09-19T08:26:55;118336.50;;;-144.97;100.00
42415;BME280;28058;46.344;17.786;2023-09-19T08:29:23;118336.50;;;-144.97;100.00
42415;BME280;28058;46.344;17.786;2023-09-19T08:31:55;118336.50;;;-144.97;100.00
42415;BME280;28058;46.344;17.786;2023-09-19T08:34:23;118336.50;;;-144.97;100.00
42415;BME280;28058;46.344;17.786;2023-09-19T08:36:54;118336.50;;;-144.97;100.00
42415;BME280;28058;46.344;17.786;2023-09-19T08:39:25;118336.50;;;-144.97;100.00
42415;BME280;28058;46.344;17.786;2023-09-19T08:41:59;118336.50;;;-144.97;100.00
42415;BME280;28058;46.344;17.786;2023-09-19T08:44:27;118336.50;;;-144.97;100.00
42415;BME280;28058;46.344;17.786;2023-09-19T08:47:29;118336.50;;;-144.97;100.00
42415;BME280;28058;46.344;17.786;2023-09-19T08:50:04;118336.50;;;-144.97;100.00
42415;BME280;28058;46.344;17.786;2023-09-19T08:52:42;118336.50;;;-144.97;100.00
42415;BME280;28058;46.344;17.786;2023-09-19T08:55:14;118336.50;;;-144.97;100.00
42415;BME280;28058;46.344;17.786;2023-09-19T08:57:49;118336.50;;;-144.97;100.00
42415;BME280;28058;46.344;17.786;2023-09-19T09:00:16;118336.50;;;-144.97;100.00
42415;BME280;28058;46.344;17.786;2023-09-19T09:02:48;118336.50;;;-144.97;100.00
42415;BME280;28058;46.344;17.786;2023-09-19T09:05:16;118336.50;;;-144.97;100.00
42415;BME280;28058;46.344;17.786;2023-09-19T09:07:50;118336.50;;;-144.97;100.00
42415;BME280;28058;46.344;17.786;2023-09-19T09:10:23;118336.50;;;-144.97;100.00
42415;BME280;28058;46.344;17.786;2023-09-19T09:12:51;118336.50;;;-144.97;100.00
42415;BME280;28058;46.344;17.786;2023-09-19T09:15:19;118336.50;;;-144.97;100.00
42415;BME280;28058;46.344;17.786;2023-09-19T09:17:49;118336.50;;;-144.97;100.00
42415;BME280;28058;46.344;17.786;2023-09-19T09:20:17;118336.50;;;-144.97;100.00
42415;BME280;28058;46.344;17.786;2023-09-19T09:22:56;118336.50;;;-144.97;100.00
42415;BME280;28058;46.344;17.786;2023-09-19T09:25:53;118336.50;;;-144.97;100.00
42415;BME280;28058;46.344;17.786;2023-09-19T09:28:26;118336.50;;;-144.97;100.00
42415;BME280;28058;46.344;17.786;2023-09-19T09:30:54;118336.50;;;-144.97;100.00
42415;BME280;28058;46.344;17.786;2023-09-19T09:33:21;118336.50;;;-144.97;100.00
42415;BME280;28058;46.344;17.786;2023-09-19T09:35:53;118336.50;;;-144.97;100.00
42415;BME280;28058;46.344;17.786;2023-09-19T09:38:27;118336.50;;;-144.97;100.00
42415;BME280;28058;46.344;17.786;2023-09-19T09:40:59;118336.50;;;-144.97;100.00
42415;BME280;28058;46.344;17.786;2023-09-19T09:43:35;118336.50;;;-144.97;100.00
42415;BME280;28058;46.344;17.786;2023-09-19T09:46:14;118336.50;;;-144.97;100.00
42415;BME280;28058;46.344;17.786;2023-09-19T09:51:40;118336.50;;;-144.97;100.00
42415;BME280;28058;46.344;17.786;2023-09-19T09:54:19;118336.50;;;-144.97;100.00
42415;BME280;28058;46.344;17.786;2023-09-19T09:56:54;118336.50;;;-144.97;100.00
42415;BME280;28058;46.344;17.786;2023-09-19T10:02:17;118336.50;;;-144.97;100.00
42415;BME280;28058;46.344;17.786;2023-09-19T10:04:57;63262.38;;;-144.97;100.00
42415;BME280;28058;46.344;17.786;2023-09-19T10:07:36;63262.38;;;-144.97;100.00
42415;BME280;28058;46.344;17.786;2023-09-19T10:10:10;63262.38;;;-144.97;100.00
42415;BME280;28058;46.344;17.786;2023-09-19T10:12:43;63262.38;;;-144.97;100.00
42415;BME280;28058;46.344;17.786;2023-09-19T10:15:12;63262.38;;;-144.97;100.00
42415;BME280;28058;46.344;17.786;2023-09-19T10:17:44;63262.38;;;-144.97;100.00
42415;BME280;28058;46.344;17.786;2023-09-19T10:20:17;63262.38;;;-144.97;100.00
42415;BME280;28058;46.344;17.786;2023-09-19T10:23:07;63262.38;;;-144.97;100.00
42415;BME280;28058;46.344;17.786;2023-09-19T10:25:42;63262.38;;;-144.97;100.00
42415;BME280;28058;46.344;17.786;2023-09-19T10:28:11;63262.38;;;-144.97;100.00
42415;BME280;28058;46.344;17.786;2023-09-19T10:30:44;63262.38;;;-144.97;100.00
42415;BME280;28058;46.344;17.786;2023-09-19T10:33:16;63262.38;;;-144.97;100.00
42415;BME280;28058;46.344;17.786;2023-09-19T10:35:46;63262.38;;;-144.97;100.00
42415;BME280;28058;46.344;17.786;2023-09-19T10:38:15;63262.38;;;-144.97;100.00
42415;BME280;28058;46.344;17.786;2023-09-19T10:40:49;63262.38;;;-144.97;100.00
42415;BME280;28058;46.344;17.786;2023-09-19T10:43:17;63262.38;;;-144.97;100.00
42415;BME280;28058;46.344;17.786;2023-09-19T10:45:46;63262.38;;;-144.97;100.00
42415;BME280;28058;46.344;17.786;2023-09-19T10:48:16;63262.38;;;-144.97;100.00
42415;BME280;28058;46.344;17.786;2023-09-19T10:54:01;63262.38;;;-144.97;100.00
42415;BME280;28058;46.344;17.786;2023-09-19T10:56:33;63262.38;;;-144.97;100.00
42415;BME280;28058;46.344;17.786;2023-09-19T10:59:08;63262.38;;;-144.97;100.00
42415;BME280;28058;46.344;17.786;2023-09-19T11:01:47;63262.38;;;-144.97;100.00
42415;BME280;28058;46.344;17.786;2023-09-19T11:04:21;63262.38;;;-144.97;100.00
42415;BME280;28058;46.344;17.786;2023-09-19T11:07:13;63262.38;;;-144.97;100.00
42415;BME280;28058;46.344;17.786;2023-09-19T11:12:58;63262.38;;;-144.97;100.00
42415;BME280;28058;46.344;17.786;2023-09-19T11:15:10;63262.38;;;-144.97;100.00
42415;BME280;28058;46.344;17.786;2023-09-19T11:17:43;63262.38;;;-144.97;100.00
42415;BME280;28058;46.344;17.786;2023-09-19T11:30:35;63262.38;;;-144.97;100.00
42415;BME280;28058;46.344;17.786;2023-09-19T11:33:16;63262.38;;;-144.97;100.00
42415;BME280;28058;46.344;17.786;2023-09-19T11:36:03;63262.38;;;-144.97;100.00
42415;BME280;28058;46.344;17.786;2023-09-19T11:43:48;63262.38;;;-144.97;100.00
42415;BME280;28058;46.344;17.786;2023-09-19T11:46:21;63262.38;;;-144.97;100.00
42415;BME280;28058;46.344;17.786;2023-09-19T11:48:48;63262.38;;;-144.97;100.00
42415;BME280;28058;46.344;17.786;2023-09-19T11:51:19;63262.38;;;-144.97;100.00
42415;BME280;28058;46.344;17.786;2023-09-19T11:53:54;63262.38;;;-144.97;100.00
42415;BME280;28058;46.344;17.786;2023-09-19T11:56:22;63262.38;;;-144.97;100.00
42415;BME280;28058;46.344;17.786;2023-09-19T11:58:51;63262.38;;;-144.97;100.00
42415;BME280;28058;46.344;17.786;2023-09-19T12:01:25;63262.38;;;-144.97;100.00
42415;BME280;28058;46.344;17.786;2023-09-19T12:03:57;63262.38;;;-144.97;100.00
42415;BME280;28058;46.344;17.786;2023-09-19T12:06:25;63262.38;;;-144.97;100.00
42415;BME280;28058;46.344;17.786;2023-09-19T12:08:52;63262.38;;;-144.97;100.00
42415;BME280;28058;46.344;17.786;2023-09-19T12:11:21;63262.38;;;-144.97;100.00
42415;BME280;28058;46.344;17.786;2023-09-19T12:13:49;63262.38;;;-144.97;100.00
42415;BME280;28058;46.344;17.786;2023-09-19T12:16:17;63262.38;;;-144.97;100.00
42415;BME280;28058;46.344;17.786;2023-09-19T12:18:45;63262.38;;;-144.97;100.00
42415;BME280;28058;46.344;17.786;2023-09-19T12:24:24;63262.38;;;-144.97;100.00
42415;BME280;28058;46.344;17.786;2023-09-19T12:26:46;63262.38;;;-144.97;100.00
42415;BME280;28058;46.344;17.786;2023-09-19T12:29:19;63262.38;;;-144.97;100.00
42415;BME280;28058;46.344;17.786;2023-09-19T12:32:05;63262.38;;;-144.97;100.00
42415;BME280;28058;46.344;17.786;2023-09-19T12:34:33;63262.38;;;-144.97;100.00
42415;BME280;28058;46.344;17.786;2023-09-19T12:37:15;63262.38;;;-144.97;100.00
42415;BME280;28058;46.344;17.786;2023-09-19T12:39:48;63262.38;;;-144.97;100.00
42415;BME280;28058;46.344;17.786;2023-09-19T12:42:16;63262.38;;;-144.97;100.00
42415;BME280;28058;46.344;17.786;2023-09-19T12:44:44;63262.38;;;-144.97;100.00
42415;BME280;28058;46.344;17.786;2023-09-19T12:47:15;63262.38;;;-144.97;100.00
42415;BME280;28058;46.344;17.786;2023-09-19T12:52:34;63262.38;;;-144.97;100.00
42415;BME280;28058;46.344;17.786;2023-09-19T12:55:01;63262.38;;;-144.97;100.00
42415;BME280;28058;46.344;17.786;2023-09-19T12:57:29;63262.38;;;-144.97;100.00
42415;BME280;28058;46.344;17.786;2023-09-19T12:59:58;63262.38;;;-144.97;100.00
42415;BME280;28058;46.344;17.786;2023-09-19T13:02:26;63262.38;;;-144.97;100.00
42415;BME280;28058;46.344;17.786;2023-09-19T13:04:55;63262.38;;;-144.97;100.00
42415;BME280;28058;46.344;17.786;2023-09-19T13:07:42;63262.38;;;-144.97;100.00
42415;BME280;28058;46.344;17.786;2023-09-19T13:10:16;63262.38;;;-144.97;100.00
42415;BME280;28058;46.344;17.786;2023-09-19T13:12:43;63262.38;;;-144.97;100.00
42415;BME280;28058;46.344;17.786;2023-09-19T13:15:14;63262.38;;;-144.97;100.00
42415;BME280;28058;46.344;17.786;2023-09-19T13:17:46;63262.38;;;-144.97;100.00
42415;BME280;28058;46.344;17.786;2023-09-19T13:20:21;63262.38;;;-144.97;100.00
42415;BME280;28058;46.344;17.786;2023-09-19T13:22:51;63262.38;;;-144.97;100.00
42415;BME280;28058;46.344;17.786;2023-09-19T13:25:21;63262.38;;;-144.97;100.00